KMHK/MHK METAR and TAF weather

Enter ICAO airport designator
Station Type Date Time Source
KMHK METAR 2020/01/17 21:52 UTC NOAA

KMHK 172152Z 17012G22KT 10SM OVC007 02/01 A2989 RMK AO2 PK WND 17026/2123 SLP131 T00220011


Station Type Date Time Source
KMHK Decoded METAR 2020/01/17 21:52 UTC NOAA

MANHATTAN REGIONAL AIRPORT, KS, United States (KMHK) 39-08N 96-41W 317M
Jan 17, 2020 - 04:52 PM EST / 2020.01.17 2152 UTC
Wind: from the S (170 degrees) at 14 MPH (12 KT) gusting to 25 MPH (22 KT):0
Visibility: 10 mile(s):0
Sky conditions: overcast
Temperature: 36.0 F (2.2 C)
Dew Point: 34.0 F (1.1 C)
Relative Humidity: 92%
Pressure (altimeter): 29.89 in. Hg (1012 hPa)
ob: KMHK 172152Z 17012G22KT 10SM OVC007 02/01 A2989 RMK AO2 PK WND 17026/2123 SLP131 T00220011
cycle: 22

Station Type Date Time Source
KMHK TAF 2020/01/17 20:58 UTC NOAA

TAF
AMD KMHK 171956Z 1720/1818 16013G20KT P6SM VCSH OVC008
FM172200 17012KT P6SM VCSH OVC004
FM180000 18012KT P6SM OVC004 WS020/20040KT
FM180700 27013G23KT P6SM BKN014
FM181000 30018G30KT P6SM SCT025

Example: see airport list